Time;durP1;ratioP1;P1;durP2;ratioP2;P2;SDS_P1;SDS_P2;PMS_P1;PMS_P2;Temp;Humidity;BMP_temperature;BMP_pressure;BME280_temperature;BME280_humidity;BME280_pressure;Samples;Min_cycle;Max_cycle;Signal;HPM_P1;HPM_P2
2022/05/13 00:01:58;;;;;;;2.73;2.30;;;12.70;99.90;;;;;;4828283;29;20507;-64
2022/05/13 00:04:46;;;;;;;4.40;2.80;;;12.70;99.90;;;;;;4832110;29;20458;-65
2022/05/13 00:07:35;;;;;;;2.40;2.20;;;12.70;99.90;;;;;;4831157;29;20968;-64
2022/05/13 00:10:25;;;;;;;4.57;2.40;;;12.70;99.90;;;;;;4831826;29;20637;-64
2022/05/13 00:13:13;;;;;;;5.67;2.97;;;12.70;99.90;;;;;;4831075;29;20563;-63
2022/05/13 00:16:01;;;;;;;3.33;2.27;;;12.60;99.90;;;;;;4825341;29;20988;-64
2022/05/13 00:18:50;;;;;;;2.73;2.53;;;12.60;99.90;;;;;;4832280;29;20540;-64
2022/05/13 00:21:38;;;;;;;5.03;2.90;;;12.60;99.90;;;;;;4827901;29;21482;-64
2022/05/13 00:24:27;;;;;;;3.13;2.33;;;12.60;99.90;;;;;;4825518;29;20453;-64
2022/05/13 00:27:16;;;;;;;3.47;2.80;;;12.50;99.90;;;;;;4829346;29;20484;-65
2022/05/13 00:30:06;;;;;;;4.50;2.70;;;12.50;99.90;;;;;;4831691;29;20465;-65
2022/05/13 00:32:55;;;;;;;4.37;2.30;;;12.50;99.90;;;;;;4830957;29;20489;-65
2022/05/13 00:35:44;;;;;;;5.53;2.83;;;12.50;99.90;;;;;;4832386;29;20478;-65
2022/05/13 00:38:32;;;;;;;3.77;2.37;;;12.50;99.90;;;;;;4827552;29;20485;-65
2022/05/13 00:41:20;;;;;;;5.63;2.73;;;12.40;99.90;;;;;;4828818;29;21083;-65
2022/05/13 00:44:10;;;;;;;4.37;2.70;;;12.30;99.90;;;;;;4830725;29;20837;-65
2022/05/13 00:46:58;;;;;;;3.83;2.57;;;12.30;99.90;;;;;;4830175;29;20553;-65
2022/05/13 00:49:46;;;;;;;2.67;2.47;;;12.30;99.90;;;;;;4830820;29;20469;-65
2022/05/13 00:52:35;;;;;;;4.97;2.90;;;12.20;99.90;;;;;;4833460;29;20496;-66
2022/05/13 00:55:27;;;;;;;2.90;2.53;;;12.20;99.90;;;;;;4833201;29;20577;-66
2022/05/13 00:58:20;;;;;;;4.10;2.77;;;12.10;99.90;;;;;;4828714;29;20457;-65
2022/05/13 01:01:09;;;;;;;3.83;2.50;;;12.10;99.90;;;;;;4828589;29;21029;-65
2022/05/13 01:04:02;;;;;;;3.50;2.90;;;12.10;99.90;;;;;;4827462;29;20512;-65
2022/05/13 01:06:52;;;;;;;5.77;3.23;;;12.10;99.90;;;;;;4833678;29;20583;-65
2022/05/13 01:09:45;;;;;;;4.80;2.50;;;12.10;99.90;;;;;;4827188;29;20484;-65
2022/05/13 01:12:36;;;;;;;3.23;2.70;;;12.20;99.90;;;;;;4828892;29;22670;-65
2022/05/13 01:15:32;;;;;;;5.67;2.93;;;12.20;99.90;;;;;;4826441;29;20492;-65
2022/05/13 01:18:31;;;;;;;4.67;2.60;;;12.20;99.90;;;;;;4833380;29;20453;-65
2022/05/13 01:21:22;;;;;;;3.43;2.20;;;12.10;99.90;;;;;;4828585;29;21034;-65
2022/05/13 01:24:12;;;;;;;4.50;2.83;;;12.10;99.90;;;;;;4825053;29;20548;-65
2022/05/13 01:27:00;;;;;;;4.90;3.40;;;12.10;99.90;;;;;;4827095;29;20485;-65
2022/05/13 01:29:49;;;;;;;4.43;2.70;;;12.10;99.90;;;;;;4831323;29;20464;-65
2022/05/13 01:32:37;;;;;;;4.20;3.00;;;12.10;99.90;;;;;;4830594;29;20538;-65
2022/05/13 01:35:25;;;;;;;5.27;2.53;;;12.10;99.90;;;;;;4830254;29;20528;-65
2022/05/13 01:38:14;;;;;;;4.20;2.90;;;12.10;99.90;;;;;;4830033;29;20623;-65
2022/05/13 01:41:06;;;;;;;3.63;3.00;;;12.00;99.90;;;;;;4832686;29;20492;-65
2022/05/13 01:43:55;;;;;;;5.10;2.77;;;12.00;99.90;;;;;;4830195;29;20484;-65
2022/05/13 01:46:43;;;;;;;6.50;3.20;;;12.00;99.90;;;;;;4830178;29;20544;-65
2022/05/13 01:49:32;;;;;;;4.53;2.87;;;12.00;99.90;;;;;;4829374;29;20518;-65
2022/05/13 01:52:20;;;;;;;2.90;2.47;;;11.90;99.90;;;;;;4827628;29;20578;-65
2022/05/13 01:55:09;;;;;;;5.10;2.80;;;11.90;99.90;;;;;;4831434;29;20483;-65
2022/05/13 01:57:58;;;;;;;5.37;3.10;;;11.90;99.90;;;;;;4828936;29;20460;-65
2022/05/13 02:00:49;;;;;;;4.00;2.90;;;11.80;99.90;;;;;;4828022;29;20475;-65
2022/05/13 02:03:47;;;;;;;5.13;3.00;;;11.80;99.90;;;;;;4826963;29;21016;-65
2022/05/13 02:06:36;;;;;;;3.50;3.00;;;11.80;99.90;;;;;;4828242;29;20580;-65
2022/05/13 02:09:24;;;;;;;4.13;2.90;;;11.80;99.90;;;;;;4828928;29;20562;-65
2022/05/13 02:12:12;;;;;;;5.50;3.27;;;11.70;99.90;;;;;;4830001;29;20622;-65
2022/05/13 02:15:03;;;;;;;5.13;2.80;;;11.70;99.90;;;;;;4823622;29;20551;-66
2022/05/13 02:17:51;;;;;;;6.90;2.90;;;11.70;99.90;;;;;;4825033;29;20562;-65
2022/05/13 02:20:40;;;;;;;3.27;2.83;;;11.60;99.90;;;;;;4827461;29;20547;-65
2022/05/13 02:23:29;;;;;;;3.93;2.60;;;11.50;99.90;;;;;;4827618;29;20557;-65
2022/05/13 02:26:17;;;;;;;3.63;3.20;;;11.50;99.90;;;;;;4821949;29;20503;-65
2022/05/13 02:29:06;;;;;;;5.30;2.87;;;11.50;99.90;;;;;;4825245;29;20601;-66
2022/05/13 02:31:56;;;;;;;5.13;2.80;;;11.50;99.90;;;;;;4825627;29;20560;-65
2022/05/13 02:34:44;;;;;;;2.90;2.60;;;11.40;99.90;;;;;;4826215;29;20525;-65
2022/05/13 02:37:32;;;;;;;6.60;3.20;;;11.40;99.90;;;;;;4823614;29;20547;-65
2022/05/13 02:41:11;;;;;;;4.40;3.50;;;11.30;99.90;;;;;;4829346;29;20468;-66
2022/05/13 02:43:30;;;;;;;3.80;2.70;;;11.30;99.90;;;;;;4822600;29;20574;-68
2022/05/13 02:46:21;;;;;;;4.03;2.87;;;11.20;99.90;;;;;;4825150;29;20576;-66
2022/05/13 02:49:10;;;;;;;3.40;3.10;;;11.30;99.90;;;;;;4825269;29;20465;-65
2022/05/13 02:51:58;;;;;;;5.10;3.67;;;11.20;99.90;;;;;;4823429;29;21271;-65
2022/05/13 02:54:46;;;;;;;3.23;2.90;;;11.20;99.90;;;;;;4823939;29;20532;-65
2022/05/13 02:57:35;;;;;;;6.27;3.53;;;11.20;99.90;;;;;;4826211;29;21325;-65
2022/05/13 03:00:23;;;;;;;4.63;3.50;;;11.20;99.90;;;;;;4827983;29;20453;-65
2022/05/13 03:03:11;;;;;;;7.23;3.33;;;11.20;99.90;;;;;;4820323;29;20588;-65
2022/05/13 03:06:01;;;;;;;6.50;3.70;;;11.20;99.90;;;;;;4825432;29;20483;-68
2022/05/13 03:08:50;;;;;;;4.50;3.80;;;11.20;99.90;;;;;;4829635;29;20473;-64
2022/05/13 03:11:38;;;;;;;4.17;3.70;;;11.20;99.90;;;;;;4826932;29;21087;-68
2022/05/13 03:14:26;;;;;;;6.33;3.90;;;11.20;99.90;;;;;;4831811;29;20681;-65
2022/05/13 03:17:14;;;;;;;5.80;4.40;;;11.20;99.90;;;;;;4832208;29;21055;-65
2022/05/13 03:20:03;;;;;;;6.20;4.27;;;11.20;99.90;;;;;;4830965;29;20483;-65
2022/05/13 03:22:53;;;;;;;5.33;4.13;;;11.20;99.90;;;;;;4828532;29;20548;-65
2022/05/13 03:25:41;;;;;;;5.43;4.93;;;11.30;99.90;;;;;;4832429;29;20608;-65
2022/05/13 03:28:29;;;;;;;4.73;4.10;;;11.30;99.90;;;;;;4832330;29;20556;-65
2022/05/13 03:31:17;;;;;;;6.90;4.93;;;11.40;99.90;;;;;;4832336;29;21127;-65
2022/05/13 03:34:09;;;;;;;9.10;4.57;;;11.50;99.90;;;;;;4829887;29;20489;-65
2022/05/13 03:36:57;;;;;;;5.93;4.50;;;11.50;99.90;;;;;;4832714;29;20874;-65
2022/05/13 03:39:46;;;;;;;10.10;4.40;;;11.50;99.90;;;;;;4830627;29;21078;-65
2022/05/13 03:42:37;;;;;;;6.57;5.07;;;11.60;99.90;;;;;;4830439;29;20579;-65
2022/05/13 03:45:26;;;;;;;5.03;4.37;;;11.60;99.90;;;;;;4830981;29;21879;-65
2022/05/13 03:48:14;;;;;;;4.53;4.07;;;11.70;99.90;;;;;;4830483;29;20536;-65
2022/05/13 03:51:02;;;;;;;5.00;4.00;;;11.60;99.90;;;;;;4828176;29;20517;-66
2022/05/13 03:53:51;;;;;;;8.20;5.00;;;11.70;99.90;;;;;;4827276;29;20484;-65
2022/05/13 03:56:40;;;;;;;7.97;4.80;;;11.70;99.90;;;;;;4830651;29;21399;-65
2022/05/13 03:59:28;;;;;;;5.03;4.50;;;11.70;99.90;;;;;;4831810;29;20841;-65
2022/05/13 04:02:16;;;;;;;5.43;4.93;;;11.70;99.90;;;;;;4827388;29;20536;-65
2022/05/13 04:11:17;;;;;;;5.30;4.50;;;11.80;99.90;;;;;;4827162;29;20456;-65
2022/05/13 04:17:15;;;;;;;6.20;4.70;;;11.80;99.90;;;;;;4828440;29;20494;-64
2022/05/13 04:20:04;;;;;;;6.07;4.73;;;11.80;99.90;;;;;;4829682;29;20480;-64
2022/05/13 04:22:52;;;;;;;8.70;4.80;;;11.90;99.90;;;;;;4825796;29;20548;-65
2022/05/13 04:25:40;;;;;;;6.40;5.10;;;11.90;99.90;;;;;;4827196;29;20561;-65
2022/05/13 04:28:29;;;;;;;6.40;5.40;;;11.90;99.90;;;;;;4825299;29;20493;-64
2022/05/13 04:31:20;;;;;;;9.37;4.90;;;11.90;99.90;;;;;;4825628;29;20469;-65
2022/05/13 04:34:09;;;;;;;6.20;4.80;;;12.00;99.90;;;;;;4827603;29;20532;-64
2022/05/13 04:36:57;;;;;;;8.27;4.70;;;12.00;99.90;;;;;;4828209;29;21111;-65
2022/05/13 04:39:52;;;;;;;4.90;4.40;;;12.00;99.90;;;;;;4828425;29;20595;-65
2022/05/13 04:42:53;;;;;;;5.57;4.90;;;12.00;99.90;;;;;;4824191;29;20481;-65
2022/05/13 04:45:43;;;;;;;8.93;4.40;;;12.00;99.90;;;;;;4829939;29;20487;-64
2022/05/13 04:48:32;;;;;;;7.27;5.50;;;12.10;99.90;;;;;;4824785;29;20560;-64
2022/05/13 04:51:21;;;;;;;9.17;4.80;;;12.20;99.90;;;;;;4822015;29;20540;-65
2022/05/13 04:54:10;;;;;;;7.10;4.77;;;12.20;99.90;;;;;;4824449;29;21032;-64
2022/05/13 04:56:58;;;;;;;5.40;4.40;;;12.20;99.90;;;;;;4823753;29;20464;-65
2022/05/13 04:59:46;;;;;;;6.10;4.30;;;12.20;99.90;;;;;;4831816;29;20461;-68
2022/05/13 05:02:35;;;;;;;5.90;4.20;;;12.20;99.90;;;;;;4815311;29;20541;-65
2022/05/13 05:05:24;;;;;;;5.93;3.90;;;12.20;99.90;;;;;;4828966;29;20506;-64
2022/05/13 05:08:13;;;;;;;4.47;4.07;;;12.20;99.90;;;;;;4827993;29;20911;-64
2022/05/13 05:11:02;;;;;;;5.60;3.80;;;12.30;99.90;;;;;;4823007;29;22018;-64
2022/05/13 05:13:52;;;;;;;4.80;4.33;;;12.30;99.90;;;;;;4828123;29;20545;-64
2022/05/13 05:16:40;;;;;;;5.30;3.90;;;12.30;99.90;;;;;;4825530;29;20617;-64
2022/05/13 05:19:28;;;;;;;4.93;4.53;;;12.30;99.90;;;;;;4827267;29;20466;-64
2022/05/13 05:22:18;;;;;;;5.67;4.27;;;12.40;99.90;;;;;;4825696;29;20509;-65
2022/05/13 05:25:07;;;;;;;7.23;4.10;;;12.40;99.90;;;;;;4823665;29;20535;-64
2022/05/13 05:27:55;;;;;;;5.73;4.17;;;12.40;99.90;;;;;;4826830;29;20476;-65
2022/05/13 05:30:45;;;;;;;5.93;4.50;;;12.40;99.90;;;;;;4822092;29;20480;-64
2022/05/13 05:33:33;;;;;;;7.03;4.60;;;12.40;99.90;;;;;;4823751;29;20997;-65
2022/05/13 05:36:21;;;;;;;5.70;4.40;;;12.40;99.90;;;;;;4818819;29;20491;-67
2022/05/13 05:39:11;;;;;;;4.47;3.80;;;12.40;99.90;;;;;;4817995;29;20875;-65
2022/05/13 05:41:59;;;;;;;6.17;4.20;;;12.40;99.90;;;;;;4811658;29;20484;-64
2022/05/13 05:44:47;;;;;;;9.10;4.07;;;12.50;99.90;;;;;;4820185;29;20468;-65
2022/05/13 05:47:36;;;;;;;5.80;4.13;;;12.50;99.90;;;;;;4815654;29;20474;-65
2022/05/13 05:50:25;;;;;;;8.30;4.10;;;12.40;99.90;;;;;;4819146;29;20468;-65
2022/05/13 05:53:13;;;;;;;6.60;3.83;;;12.40;99.90;;;;;;4823850;29;20488;-65
2022/05/13 05:59:08;;;;;;;4.87;4.07;;;12.40;99.90;;;;;;4825771;29;20461;-64
2022/05/13 06:01:57;;;;;;;4.67;4.10;;;12.40;99.90;;;;;;4824000;29;20495;-64
2022/05/13 06:04:45;;;;;;;6.30;4.23;;;12.50;99.90;;;;;;4823585;29;20457;-65
2022/05/13 06:07:33;;;;;;;5.80;4.63;;;12.50;99.90;;;;;;4820112;29;21203;-66
2022/05/13 06:10:22;;;;;;;5.03;4.63;;;12.50;99.90;;;;;;4821962;29;20832;-65
2022/05/13 06:13:14;;;;;;;4.97;4.30;;;12.50;99.90;;;;;;4823170;29;20761;-65
2022/05/13 06:16:02;;;;;;;7.87;4.27;;;12.40;99.90;;;;;;4822071;29;20488;-65
2022/05/13 06:18:51;;;;;;;4.80;4.30;;;12.50;99.90;;;;;;4820469;29;20532;-65
2022/05/13 06:21:39;;;;;;;7.80;4.43;;;12.40;99.90;;;;;;4820197;29;20488;-65
2022/05/13 06:24:27;;;;;;;5.90;4.43;;;12.40;99.90;;;;;;4819788;29;22016;-65
2022/05/13 06:27:15;;;;;;;5.83;4.83;;;12.50;99.90;;;;;;4819403;29;20472;-65
2022/05/13 06:30:07;;;;;;;5.40;4.90;;;12.50;99.90;;;;;;4823383;29;20557;-66
2022/05/13 06:32:56;;;;;;;5.90;4.10;;;12.50;99.90;;;;;;4818160;29;20476;-66
2022/05/13 06:35:45;;;;;;;7.70;5.63;;;12.50;99.90;;;;;;4822044;29;20512;-65
2022/05/13 06:38:33;;;;;;;6.00;4.77;;;12.40;99.90;;;;;;4822447;29;20500;-66
2022/05/13 06:41:21;;;;;;;6.80;4.43;;;12.40;99.90;;;;;;4816985;29;20472;-65
2022/05/13 06:44:10;;;;;;;7.00;5.13;;;12.40;99.90;;;;;;4812799;29;20579;-65
2022/05/13 06:46:59;;;;;;;5.33;4.80;;;12.40;99.90;;;;;;4817788;29;20592;-65
2022/05/13 06:49:47;;;;;;;5.30;4.80;;;12.40;99.90;;;;;;4818324;29;20471;-65
2022/05/13 06:52:36;;;;;;;6.97;5.43;;;12.40;99.90;;;;;;4823278;29;20484;-65
2022/05/13 06:55:29;;;;;;;4.87;4.47;;;12.50;99.90;;;;;;4820839;29;20505;-65
2022/05/13 06:58:18;;;;;;;5.67;4.53;;;12.50;99.90;;;;;;4816733;29;20457;-65
2022/05/13 07:01:06;;;;;;;7.10;5.70;;;12.50;99.90;;;;;;4820513;29;20496;-65
2022/05/13 07:03:56;;;;;;;7.33;4.90;;;12.50;99.90;;;;;;4818927;29;20493;-65
2022/05/13 07:06:44;;;;;;;6.13;5.53;;;12.50;99.90;;;;;;4826699;29;20492;-65
2022/05/13 07:09:34;;;;;;;7.73;5.23;;;12.50;99.90;;;;;;4827325;29;20481;-65
2022/05/13 07:12:22;;;;;;;5.57;5.03;;;12.60;99.90;;;;;;4823049;29;20902;-65
2022/05/13 07:15:13;;;;;;;8.47;5.07;;;12.60;99.90;;;;;;4812063;29;20488;-65
2022/05/13 07:18:01;;;;;;;8.10;5.47;;;12.60;99.90;;;;;;4820121;29;20576;-65
2022/05/13 07:20:51;;;;;;;5.47;4.90;;;12.60;99.90;;;;;;4825086;29;20558;-65
2022/05/13 07:23:39;;;;;;;6.17;5.40;;;12.60;99.90;;;;;;4815823;29;20491;-65
2022/05/13 07:26:27;;;;;;;8.27;5.50;;;12.70;99.90;;;;;;4824685;29;20608;-65
2022/05/13 07:29:15;;;;;;;5.53;4.87;;;12.70;99.90;;;;;;4819768;29;20479;-65
2022/05/13 07:32:04;;;;;;;5.60;5.10;;;12.70;99.90;;;;;;4819044;29;20966;-66
2022/05/13 07:34:52;;;;;;;6.57;5.00;;;12.70;99.90;;;;;;4818717;29;20539;-66
2022/05/13 07:37:42;;;;;;;7.03;5.50;;;12.70;99.90;;;;;;4818466;29;20471;-66
2022/05/13 07:43:36;;;;;;;5.87;5.20;;;12.80;99.90;;;;;;4818866;29;20873;-65
2022/05/13 07:46:25;;;;;;;6.97;5.60;;;12.80;99.90;;;;;;4816796;29;20789;-65
2022/05/13 07:49:13;;;;;;;9.00;6.30;;;12.90;99.90;;;;;;4816938;29;21183;-65
2022/05/13 07:52:01;;;;;;;6.20;5.60;;;12.90;99.90;;;;;;4813949;29;20526;-65
2022/05/13 07:54:51;;;;;;;6.63;5.33;;;12.90;99.90;;;;;;4820226;29;20465;-66
2022/05/13 07:57:39;;;;;;;6.53;5.37;;;12.90;99.90;;;;;;4818286;29;20465;-65
2022/05/13 08:00:29;;;;;;;9.43;5.50;;;13.00;99.90;;;;;;4822921;29;20474;-65
2022/05/13 08:03:19;;;;;;;8.70;5.33;;;13.00;99.90;;;;;;4822790;29;20520;-65
2022/05/13 08:06:08;;;;;;;7.13;5.40;;;13.00;99.90;;;;;;4812690;29;20494;-68
2022/05/13 08:08:58;;;;;;;9.00;5.50;;;13.00;99.90;;;;;;4816433;29;20664;-66
2022/05/13 08:11:47;;;;;;;7.07;5.23;;;13.10;99.90;;;;;;4820261;29;20563;-65
2022/05/13 08:14:35;;;;;;;6.87;5.30;;;13.10;99.90;;;;;;4815524;29;20472;-65
2022/05/13 08:17:24;;;;;;;7.60;6.07;;;13.20;99.90;;;;;;4820518;29;20515;-65
2022/05/13 08:20:12;;;;;;;7.87;5.90;;;13.20;99.90;;;;;;4820969;29;20468;-65
2022/05/13 08:23:01;;;;;;;6.53;5.10;;;13.20;99.90;;;;;;4818250;29;20492;-65
2022/05/13 08:25:49;;;;;;;10.97;5.70;;;13.20;99.90;;;;;;4819743;29;20533;-65
2022/05/13 08:28:39;;;;;;;8.70;5.77;;;13.30;99.90;;;;;;4821201;29;20475;-65
2022/05/13 08:31:28;;;;;;;6.73;4.90;;;13.30;99.90;;;;;;4826213;29;20465;-65
2022/05/13 08:34:16;;;;;;;7.23;5.57;;;13.40;99.90;;;;;;4817949;29;21041;-65
2022/05/13 08:37:05;;;;;;;7.10;6.13;;;13.30;99.90;;;;;;4820571;29;21028;-65
2022/05/13 08:39:53;;;;;;;6.93;5.40;;;13.30;99.90;;;;;;4819328;29;20468;-65
2022/05/13 08:42:47;;;;;;;13.60;5.57;;;13.30;99.90;;;;;;4826321;29;20492;-65
2022/05/13 08:45:39;;;;;;;8.87;6.37;;;13.40;99.90;;;;;;4823077;29;20515;-65
2022/05/13 08:48:33;;;;;;;8.00;5.50;;;13.50;99.90;;;;;;4824346;29;20520;-65
2022/05/13 08:51:30;;;;;;;8.50;5.93;;;13.60;99.90;;;;;;4823061;29;20845;-65
2022/05/13 08:54:21;;;;;;;9.87;6.33;;;13.70;99.90;;;;;;4821247;29;20632;-65
2022/05/13 08:57:11;;;;;;;7.43;6.20;;;13.70;99.90;;;;;;4825321;29;21259;-65
2022/05/13 09:00:04;;;;;;;9.83;6.20;;;13.80;99.90;;;;;;4821578;29;20464;-64
2022/05/13 09:03:04;;;;;;;9.43;5.97;;;13.80;99.90;;;;;;4815030;29;20540;-65
2022/05/13 09:05:55;;;;;;;8.40;6.00;;;13.90;99.90;;;;;;4823824;29;20473;-65
2022/05/13 09:08:44;;;;;;;9.53;6.20;;;14.00;99.90;;;;;;4826524;29;20464;-65
2022/05/13 09:11:35;;;;;;;10.57;5.90;;;14.00;99.90;;;;;;4823701;29;20969;-65
2022/05/13 09:14:30;;;;;;;9.20;6.37;;;14.10;99.90;;;;;;4823575;29;20480;-64
2022/05/13 09:17:34;;;;;;;6.70;5.77;;;14.10;99.90;;;;;;4821462;29;20493;-65
2022/05/13 09:20:26;;;;;;;13.80;6.80;;;14.20;99.90;;;;;;4820390;29;20460;-65
2022/05/13 09:23:15;;;;;;;8.13;5.87;;;14.30;99.90;;;;;;4818861;29;21028;-65
2022/05/13 09:26:08;;;;;;;9.67;6.00;;;14.40;99.90;;;;;;4821326;29;20496;-66
2022/05/13 09:29:07;;;;;;;9.50;7.10;;;14.50;99.90;;;;;;4824992;29;20476;-65
2022/05/13 09:32:07;;;;;;;7.37;5.63;;;14.60;99.90;;;;;;4821749;29;20543;-65
2022/05/13 09:35:05;;;;;;;7.80;6.13;;;14.70;99.90;;;;;;4821024;29;20491;-65
2022/05/13 09:37:55;;;;;;;6.40;5.50;;;14.70;99.90;;;;;;4821484;29;20496;-65
2022/05/13 09:40:57;;;;;;;8.90;6.07;;;14.80;99.90;;;;;;4823831;29;20979;-65
2022/05/13 09:43:54;;;;;;;13.17;6.30;;;14.90;99.90;;;;;;4816791;29;20496;-65
2022/05/13 09:46:44;;;;;;;10.07;5.80;;;14.90;99.90;;;;;;4817896;29;20542;-65
2022/05/13 09:49:36;;;;;;;7.23;5.60;;;14.90;99.90;;;;;;4826389;29;20890;-65
2022/05/13 09:52:30;;;;;;;9.67;5.23;;;15.00;99.90;;;;;;4820053;29;20576;-65
2022/05/13 09:55:27;;;;;;;7.50;6.00;;;15.00;99.90;;;;;;4821675;29;21013;-65
2022/05/13 09:58:18;;;;;;;8.63;5.23;;;15.10;99.90;;;;;;4821558;29;20480;-65
2022/05/13 10:01:09;;;;;;;7.37;5.80;;;15.20;99.90;;;;;;4821929;29;20465;-65
2022/05/13 10:04:08;;;;;;;9.57;5.60;;;15.30;99.90;;;;;;4818393;29;20519;-66
2022/05/13 10:07:04;;;;;;;7.67;5.60;;;15.30;99.90;;;;;;4823066;29;20477;-66
2022/05/13 10:16:17;;;;;;;8.13;5.03;;;15.30;99.90;;;;;;4819352;29;20488;-66
2022/05/13 10:19:12;;;;;;;7.33;5.33;;;15.40;99.90;;;;;;4821208;29;21516;-66
2022/05/13 10:22:10;;;;;;;5.50;4.87;;;15.50;99.90;;;;;;4822600;29;20508;-66
2022/05/13 10:25:03;;;;;;;7.73;5.70;;;15.50;99.90;;;;;;4826255;29;21006;-66
2022/05/13 10:27:57;;;;;;;7.00;5.13;;;15.50;99.90;;;;;;4817644;29;20470;-66
2022/05/13 10:30:51;;;;;;;10.50;5.40;;;15.50;99.90;;;;;;4824882;29;20481;-65
2022/05/13 10:33:43;;;;;;;8.47;5.47;;;15.40;99.90;;;;;;4822411;29;20488;-65
2022/05/13 10:36:38;;;;;;;9.23;5.50;;;15.30;99.90;;;;;;4822025;29;20872;-66
2022/05/13 10:39:34;;;;;;;9.17;6.10;;;15.20;99.90;;;;;;4822921;29;20461;-66
2022/05/13 10:42:26;;;;;;;6.73;6.03;;;15.20;99.90;;;;;;4826309;29;20492;-66
2022/05/13 10:45:20;;;;;;;7.13;6.17;;;15.00;99.90;;;;;;4821350;29;21057;-66
2022/05/13 10:48:20;;;;;;;8.63;5.93;;;14.90;99.90;;;;;;4821146;29;20467;-67
2022/05/13 10:51:18;;;;;;;8.60;5.40;;;14.90;99.90;;;;;;4821851;29;20510;-66
2022/05/13 10:54:26;;;;;;;6.20;5.37;;;15.00;99.90;;;;;;4817573;29;20488;-66
2022/05/13 10:57:30;;;;;;;5.23;4.57;;;15.10;99.90;;;;;;4828698;29;20624;-65
2022/05/13 11:00:20;;;;;;;5.13;4.30;;;15.20;99.90;;;;;;4817223;29;20500;-65
2022/05/13 11:03:40;;;;;;;4.60;4.17;;;15.20;99.90;;;;;;4824598;29;20558;-66
2022/05/13 11:06:46;;;;;;;5.53;4.50;;;15.10;99.90;;;;;;4819410;29;20492;-65
2022/05/13 11:09:45;;;;;;;5.03;4.57;;;15.20;99.90;;;;;;4819286;29;20469;-65
2022/05/13 11:12:40;;;;;;;4.53;4.13;;;15.30;99.90;;;;;;4822969;29;20572;-65
2022/05/13 11:15:35;;;;;;;5.53;4.70;;;15.30;99.90;;;;;;4821693;29;20572;-65
2022/05/13 11:18:38;;;;;;;6.33;5.20;;;15.30;99.90;;;;;;4822654;29;20495;-65
2022/05/13 11:21:36;;;;;;;4.73;4.10;;;15.30;99.90;;;;;;4821991;29;20460;-66
2022/05/13 11:28:01;;;;;;;4.97;4.10;;;15.60;99.90;;;;;;4814030;29;20483;-66
2022/05/13 11:31:00;;;;;;;4.30;3.73;;;15.60;99.90;;;;;;4816851;29;20468;-66
2022/05/13 11:33:58;;;;;;;4.77;3.97;;;15.60;99.90;;;;;;4816207;29;20487;-66
2022/05/13 11:36:52;;;;;;;6.40;3.70;;;15.40;99.90;;;;;;4822773;29;20488;-66
2022/05/13 11:39:50;;;;;;;4.43;3.40;;;15.50;99.90;;;;;;4825291;29;20555;-66
2022/05/13 11:46:22;;;;;;;3.83;2.87;;;15.80;99.90;;;;;;4829105;29;20514;-66
2022/05/13 11:49:20;;;;;;;4.47;3.50;;;16.00;99.90;;;;;;4823291;29;20465;-66
2022/05/13 11:52:28;;;;;;;4.33;3.80;;;16.00;99.90;;;;;;4821279;29;20488;-65
2022/05/13 11:55:24;;;;;;;4.27;3.87;;;15.90;99.90;;;;;;4828859;29;20473;-70
2022/05/13 11:58:47;;;;;;;4.20;3.50;;;15.80;99.90;;;;;;4817512;29;22600;-69
2022/05/13 12:02:07;;;;;;;5.23;3.63;;;15.80;99.90;;;;;;4820996;29;20761;-69
2022/05/13 12:05:15;;;;;;;6.93;4.50;;;15.90;99.90;;;;;;4823065;29;20481;-70
2022/05/13 12:08:16;;;;;;;4.60;3.60;;;15.90;99.90;;;;;;4820349;29;20491;-65
2022/05/13 12:11:40;;;;;;;5.83;4.00;;;16.10;99.90;;;;;;4807948;29;20477;-67
2022/05/13 12:14:36;;;;;;;4.83;4.43;;;16.30;99.90;;;;;;4823252;29;21211;-66
2022/05/13 12:17:32;;;;;;;5.20;4.20;;;16.60;99.90;;;;;;4818323;29;20627;-66
2022/05/13 12:20:34;;;;;;;4.97;3.93;;;16.80;99.90;;;;;;4821535;29;20564;-67
2022/05/13 12:23:27;;;;;;;4.70;3.63;;;16.80;99.90;;;;;;4825865;29;21028;-66
2022/05/13 12:26:15;;;;;;;4.80;3.23;;;16.90;99.90;;;;;;4818527;29;20511;-67
2022/05/13 12:29:17;;;;;;;3.33;3.03;;;16.80;99.90;;;;;;4824093;29;20495;-67
2022/05/13 12:32:17;;;;;;;4.80;2.93;;;16.70;99.90;;;;;;4816547;29;21040;-67
2022/05/13 12:38:19;;;;;;;3.30;2.83;;;16.60;99.90;;;;;;4819539;29;20661;-66
2022/05/13 12:41:18;;;;;;;6.50;3.13;;;16.60;99.90;;;;;;4826327;29;20865;-66
2022/05/13 12:44:10;;;;;;;3.27;2.80;;;16.70;99.90;;;;;;4824210;29;21013;-67
2022/05/13 12:47:18;;;;;;;5.77;3.23;;;16.70;99.90;;;;;;4817970;29;20567;-66
2022/05/13 12:50:22;;;;;;;3.90;2.80;;;16.70;99.90;;;;;;4813418;29;20457;-67
2022/05/13 12:53:38;;;;;;;3.57;3.13;;;16.60;99.90;;;;;;4819948;29;20494;-67
2022/05/13 12:56:34;;;;;;;4.90;3.40;;;16.60;99.90;;;;;;4813203;29;20487;-68
2022/05/13 12:59:28;;;;;;;5.93;4.43;;;16.40;99.90;;;;;;4824004;29;20483;-67
2022/05/13 13:02:16;;;;;;;4.00;3.27;;;16.20;99.90;;;;;;4814748;29;20516;-67
2022/05/13 13:05:08;;;;;;;4.63;3.60;;;16.20;99.90;;;;;;4821332;29;20482;-67
2022/05/13 13:08:04;;;;;;;4.87;3.63;;;16.20;99.90;;;;;;4824454;29;20488;-66
2022/05/13 13:10:57;;;;;;;4.20;3.70;;;16.20;99.90;;;;;;4817813;29;20465;-66
2022/05/13 13:13:51;;;;;;;4.33;3.70;;;16.20;99.90;;;;;;4817794;29;20493;-66
2022/05/13 13:16:51;;;;;;;4.10;3.70;;;16.10;99.90;;;;;;4818980;29;20521;-66
2022/05/13 13:19:39;;;;;;;5.00;3.63;;;16.10;99.90;;;;;;4821493;29;20484;-66
2022/05/13 13:22:42;;;;;;;4.50;3.30;;;16.00;99.90;;;;;;4825782;29;20897;-67
2022/05/13 13:25:34;;;;;;;3.33;2.90;;;16.10;99.90;;;;;;4819841;29;20567;-66
2022/05/13 13:28:26;;;;;;;3.20;2.90;;;16.00;99.90;;;;;;4813497;29;20530;-66
2022/05/13 13:31:22;;;;;;;6.17;3.40;;;16.10;99.90;;;;;;4815431;29;20467;-66
2022/05/13 13:34:24;;;;;;;3.53;3.20;;;16.10;99.90;;;;;;4822900;29;21022;-66
2022/05/13 13:37:14;;;;;;;4.73;3.23;;;16.10;99.90;;;;;;4818003;29;20460;-65
2022/05/13 13:40:19;;;;;;;2.97;2.70;;;16.10;99.90;;;;;;4818861;29;20472;-68
2022/05/13 13:43:12;;;;;;;2.97;2.30;;;16.00;99.90;;;;;;4823341;29;20522;-69
2022/05/13 13:46:07;;;;;;;2.70;2.50;;;16.00;99.90;;;;;;4822196;29;21542;-69
2022/05/13 13:49:00;;;;;;;5.40;2.80;;;15.90;99.90;;;;;;4824433;29;20475;-69
2022/05/13 13:51:52;;;;;;;2.93;2.53;;;15.90;99.90;;;;;;4823660;29;20472;-66
2022/05/13 13:54:44;;;;;;;4.30;2.90;;;15.80;99.90;;;;;;4821896;29;20457;-66
2022/05/13 13:58:07;;;;;;;5.47;2.90;;;15.90;99.90;;;;;;4817259;29;20468;-66
2022/05/13 14:00:55;;;;;;;3.70;2.60;;;15.90;99.90;;;;;;4821616;29;20471;-66
2022/05/13 14:03:48;;;;;;;3.20;2.60;;;16.00;99.90;;;;;;4820106;29;20484;-66
2022/05/13 14:06:37;;;;;;;7.23;3.07;;;16.10;99.90;;;;;;4826504;29;20560;-68
2022/05/13 14:09:33;;;;;;;4.20;3.13;;;16.20;99.90;;;;;;4825962;29;20461;-66
2022/05/13 14:12:22;;;;;;;6.20;3.37;;;16.40;99.90;;;;;;4815646;29;20490;-67
2022/05/13 14:15:33;;;;;;;3.40;2.90;;;16.70;99.90;;;;;;4819277;29;20484;-68
2022/05/13 14:18:22;;;;;;;7.70;2.90;;;17.10;99.90;;;;;;4814379;29;20487;-66
2022/05/13 14:21:23;;;;;;;4.77;3.20;;;17.40;99.90;;;;;;4815518;29;20488;-67
2022/05/13 14:24:11;;;;;;;3.07;2.77;;;17.50;99.90;;;;;;4815051;29;20484;-66
2022/05/13 14:27:05;;;;;;;5.20;2.90;;;17.40;99.90;;;;;;4810127;29;20495;-67
2022/05/13 14:29:57;;;;;;;4.60;2.33;;;17.40;99.90;;;;;;4811616;29;20461;-67
2022/05/13 14:32:47;;;;;;;3.53;2.57;;;17.40;99.90;;;;;;4819110;29;20486;-67
2022/05/13 14:35:37;;;;;;;4.30;2.63;;;17.30;99.90;;;;;;4820594;29;20480;-67
2022/05/13 14:42:00;;;;;;;3.87;2.33;;;17.20;99.90;;;;;;4821754;29;20563;-67
2022/05/13 14:44:51;;;;;;;3.90;2.43;;;17.10;99.90;;;;;;4824877;29;20489;-68
2022/05/13 14:47:40;;;;;;;3.80;2.53;;;17.10;99.90;;;;;;4819778;29;20457;-67
2022/05/13 14:50:35;;;;;;;2.93;2.63;;;17.10;99.90;;;;;;4822483;29;21009;-66
2022/05/13 14:53:23;;;;;;;3.50;2.90;;;17.10;99.90;;;;;;4824536;29;20493;-66
2022/05/13 14:56:14;;;;;;;4.47;2.27;;;17.10;99.90;;;;;;4823867;29;21005;-69
2022/05/13 14:59:05;;;;;;;3.70;2.53;;;17.00;99.90;;;;;;4822333;29;21329;-66
2022/05/13 15:01:53;;;;;;;3.53;2.20;;;17.10;99.90;;;;;;4822283;29;20468;-67
2022/05/13 15:04:53;;;;;;;6.53;2.80;;;16.90;99.90;;;;;;4823800;29;20460;-68
2022/05/13 15:07:42;;;;;;;4.17;2.60;;;16.80;99.90;;;;;;4822575;29;20467;-67
2022/05/13 15:10:30;;;;;;;3.83;3.00;;;16.80;99.90;;;;;;4814380;29;20469;-67
2022/05/13 15:13:24;;;;;;;4.50;2.20;;;16.70;99.90;;;;;;4820379;29;20916;-66
2022/05/13 15:16:13;;;;;;;4.03;2.40;;;16.70;99.90;;;;;;4825830;29;20992;-67
2022/05/13 15:19:02;;;;;;;3.40;2.67;;;16.50;99.90;;;;;;4821574;29;20499;-68
2022/05/13 15:21:50;;;;;;;6.20;2.60;;;16.50;99.90;;;;;;4826045;29;20456;-67
2022/05/13 15:24:40;;;;;;;3.57;2.50;;;16.60;99.90;;;;;;4818218;29;20476;-67
2022/05/13 15:27:29;;;;;;;3.57;2.50;;;16.50;99.90;;;;;;4825657;29;20536;-68
2022/05/13 15:30:19;;;;;;;4.77;2.50;;;16.30;99.90;;;;;;4825570;29;20550;-67